createdAt,value
2022-10-05T00:04:39.304Z,2.3
2022-10-05T00:09:37.086Z,2.2
2022-10-05T00:14:35.145Z,2.2
2022-10-05T00:19:33.306Z,2.2
2022-10-05T00:24:31.401Z,2.3
2022-10-05T00:29:29.611Z,2.4
2022-10-05T00:34:42.168Z,2.4
2022-10-05T00:39:37.754Z,2.5
2022-10-05T00:44:35.662Z,2.5
2022-10-05T00:49:33.537Z,2.4
2022-10-05T00:54:31.714Z,2.4
2022-10-05T00:59:29.757Z,2.2
2022-10-05T01:04:27.769Z,2.2
2022-10-05T01:09:25.948Z,2.2
2022-10-05T01:14:24.057Z,2.1
2022-10-05T01:19:22.031Z,2.1
2022-10-05T01:24:19.968Z,2
2022-10-05T01:29:18.067Z,2
2022-10-05T01:34:16.400Z,2
2022-10-05T01:39:14.457Z,2
2022-10-05T01:44:12.432Z,1.8
2022-10-05T01:49:10.498Z,1.8
2022-10-05T01:54:08.542Z,1.7
2022-10-05T01:59:06.553Z,1.5
2022-10-05T02:04:04.386Z,1.4
2022-10-05T02:09:02.230Z,1.4
2022-10-05T02:14:00.310Z,1.3
2022-10-05T02:18:58.261Z,1.4
2022-10-05T02:23:56.349Z,1.4
2022-10-05T02:28:54.493Z,1.5
2022-10-05T02:33:52.626Z,1.4
2022-10-05T02:38:50.646Z,1.4
2022-10-05T02:43:48.643Z,1.3
2022-10-05T02:48:46.620Z,1.4
2022-10-05T02:53:44.767Z,1.2
2022-10-05T02:58:42.823Z,1.1
2022-10-05T03:03:40.714Z,1.1
2022-10-05T03:08:38.644Z,1.1
2022-10-05T03:13:36.758Z,1.1
2022-10-05T03:18:34.688Z,1
2022-10-05T03:23:32.548Z,0.9
2022-10-05T03:28:30.607Z,0.8
2022-10-05T03:33:28.549Z,0.8
2022-10-05T03:38:41.031Z,0.8
2022-10-05T03:43:36.701Z,0.6
2022-10-05T03:48:34.501Z,0.6
2022-10-05T03:53:32.526Z,0.4
2022-10-05T03:58:30.547Z,0.5
2022-10-05T04:03:28.625Z,0.4
2022-10-05T04:08:26.765Z,0.6
2022-10-05T04:13:24.719Z,0.5
2022-10-05T04:18:22.682Z,0.4
2022-10-05T04:23:20.585Z,0.3
2022-10-05T04:28:18.815Z,0.4
2022-10-05T04:33:16.685Z,0.5
2022-10-05T04:38:14.875Z,0.7
2022-10-05T04:43:13.094Z,1
2022-10-05T04:48:11.575Z,1.3
2022-10-05T04:53:24.147Z,1.6
2022-10-05T04:58:19.894Z,1.9
2022-10-05T05:03:18.181Z,2.1
2022-10-05T05:08:16.627Z,2.5
2022-10-05T05:13:15.129Z,2.8
2022-10-05T05:18:13.438Z,3.1
2022-10-05T05:23:12.182Z,3.7
2022-10-05T05:28:11.048Z,4.5
2022-10-05T05:33:09.741Z,5.5
2022-10-05T05:38:08.294Z,5.9
2022-10-05T05:43:06.851Z,6.5
2022-10-05T05:48:05.932Z,7.3
2022-10-05T05:53:05.005Z,8.2
2022-10-05T05:58:04.736Z,9.8
2022-10-05T06:03:03.470Z,9.7
2022-10-05T06:08:01.145Z,9.9
2022-10-05T06:13:01.767Z,11
2022-10-05T06:17:59.450Z,10.9
2022-10-05T06:22:57.070Z,11
2022-10-05T06:27:56.709Z,12.6
2022-10-05T06:32:54.884Z,12.7
2022-10-05T06:37:53.405Z,13.2
2022-10-05T06:42:52.225Z,14
2022-10-05T06:47:50.596Z,14.2
2022-10-05T06:52:48.637Z,14.4
2022-10-05T06:57:47.823Z,15.5
2022-10-05T07:02:47.810Z,17.3
2022-10-05T07:07:46.762Z,17.7
2022-10-05T07:12:44.364Z,16.9
2022-10-05T07:17:42.603Z,16.5
2022-10-05T07:22:42.090Z,19.5
2022-10-05T07:27:43.358Z,22.9
2022-10-05T07:32:45.658Z,26.8
2022-10-05T07:37:46.137Z,28.8
2022-10-05T07:42:50.872Z,30.7
2022-10-05T07:47:45.141Z,31.7
2022-10-05T07:52:43.741Z,32.4
2022-10-05T07:57:42.233Z,32.9
2022-10-05T08:02:41.009Z,33.6
2022-10-05T08:07:39.887Z,34.3
2022-10-05T08:12:38.097Z,34.4
2022-10-05T08:17:36.380Z,35
2022-10-05T08:22:34.725Z,35.4
2022-10-05T08:27:32.815Z,35.7
2022-10-05T08:32:31.164Z,36
2022-10-05T08:37:29.307Z,36.5
2022-10-05T08:42:27.452Z,36.4
2022-10-05T08:47:25.796Z,36.7
2022-10-05T08:52:23.835Z,36.7
2022-10-05T08:57:22.396Z,37
2022-10-05T09:02:20.575Z,36.8
2022-10-05T09:07:18.492Z,36.6
2022-10-05T09:12:16.850Z,36.8
2022-10-05T09:17:14.321Z,36.5
2022-10-05T09:22:12.224Z,36.4
2022-10-05T09:27:11.049Z,37.3
2022-10-05T09:32:12.992Z,37.5
2022-10-05T09:37:07.939Z,38.5
2022-10-05T09:42:06.070Z,38
2022-10-05T09:47:04.273Z,38
2022-10-05T09:52:02.860Z,38.4
2022-10-05T09:57:01.364Z,39
2022-10-05T10:01:59.620Z,38.6
2022-10-05T10:06:57.630Z,38.7
2022-10-05T10:11:56.090Z,39.3
2022-10-05T10:16:54.341Z,39.4
2022-10-05T10:21:52.431Z,39.6
2022-10-05T10:26:50.535Z,39.5
2022-10-05T10:31:48.169Z,38.7
2022-10-05T10:36:46.500Z,39.2
2022-10-05T10:41:44.670Z,39
2022-10-05T10:46:42.912Z,38.5
2022-10-05T10:51:38.996Z,37.2
2022-10-05T10:56:37.931Z,38.1
2022-10-05T11:01:36.845Z,39.3
2022-10-05T11:06:34.708Z,38.8
2022-10-05T11:11:32.365Z,38.4
2022-10-05T11:16:30.798Z,38.3
2022-10-05T11:21:28.445Z,38.4
2022-10-05T11:26:26.035Z,38.1
2022-10-05T11:31:24.161Z,37.9
2022-10-05T11:36:22.624Z,38.7
2022-10-05T11:41:20.512Z,38.1
2022-10-05T11:46:18.839Z,38.9
2022-10-05T11:51:16.905Z,38.5
2022-10-05T11:56:14.716Z,38.8
2022-10-05T12:01:12.757Z,38.4
2022-10-05T12:06:10.543Z,38.2
2022-10-05T12:11:08.041Z,37.5
2022-10-05T12:16:00.333Z,29.9
2022-10-05T12:20:55.319Z,30.5
2022-10-05T12:25:55.792Z,33.1
2022-10-05T12:30:55.069Z,33.6
2022-10-05T12:35:52.653Z,33
2022-10-05T12:40:49.953Z,29.8
2022-10-05T12:45:47.466Z,29.8
2022-10-05T12:50:43.226Z,26.9
2022-10-05T12:55:40.035Z,25.8
2022-10-05T13:00:36.799Z,24.3
2022-10-05T13:05:33.790Z,23.1
2022-10-05T13:10:31.425Z,22.6
2022-10-05T13:15:29.167Z,22.5
2022-10-05T13:20:26.874Z,22
2022-10-05T13:25:24.408Z,21.2
2022-10-05T13:30:22.026Z,20.6
2022-10-05T13:35:19.706Z,20.2
2022-10-05T13:40:16.832Z,19.5
2022-10-05T13:45:14.323Z,19
2022-10-05T13:50:11.285Z,18.5
2022-10-05T13:55:09.090Z,18.2
2022-10-05T14:00:06.678Z,17.6
2022-10-05T14:05:04.772Z,17.6
2022-10-05T14:10:02.711Z,17.2
2022-10-05T14:15:00.397Z,16.8
2022-10-05T14:19:58.175Z,16.6
2022-10-05T14:24:56.097Z,16.2
2022-10-05T14:29:53.825Z,16.3
2022-10-05T14:34:51.933Z,15.9
2022-10-05T14:39:50.004Z,15.6
2022-10-05T14:44:47.526Z,14.5
2022-10-05T14:49:45.153Z,14.8
2022-10-05T14:54:42.870Z,14.3
2022-10-05T14:59:40.579Z,14
2022-10-05T15:04:38.131Z,13.5
2022-10-05T15:09:35.844Z,13
2022-10-05T15:14:33.905Z,12.5
2022-10-05T15:19:31.437Z,12.2
2022-10-05T15:24:29.085Z,12
2022-10-05T15:29:26.814Z,11.5
2022-10-05T15:34:24.524Z,11.1
2022-10-05T15:39:22.270Z,10.8
2022-10-05T15:44:19.920Z,10.4
2022-10-05T15:49:17.539Z,10.1
2022-10-05T15:54:15.511Z,9.6
2022-10-05T15:59:16.930Z,9.2
2022-10-05T16:04:10.620Z,8.8
2022-10-05T16:09:08.293Z,8.6
2022-10-05T16:14:06.259Z,8.3
2022-10-05T16:19:04.246Z,8.1
2022-10-05T16:24:02.200Z,7.9
2022-10-05T16:29:00.033Z,7.7
2022-10-05T16:33:58.019Z,7.6
2022-10-05T16:38:55.919Z,7.5
2022-10-05T16:43:53.746Z,7.4
2022-10-05T16:48:51.789Z,7.3
2022-10-05T16:53:49.719Z,7.2
2022-10-05T16:58:47.759Z,7.1
2022-10-05T17:03:45.700Z,6.9
2022-10-05T17:08:43.810Z,6.8
2022-10-05T17:13:42.060Z,6.8
2022-10-05T17:18:40.244Z,6.7
2022-10-05T17:23:38.528Z,6.6
2022-10-05T17:28:36.881Z,6.6
2022-10-05T17:33:35.022Z,6.5
2022-10-05T17:38:33.167Z,6.6
2022-10-05T17:43:31.306Z,6.6
2022-10-05T17:48:29.494Z,6.6
2022-10-05T17:53:27.791Z,6.6
2022-10-05T17:58:26.173Z,6.5
2022-10-05T18:03:24.269Z,6.5
2022-10-05T18:08:22.752Z,6.5
2022-10-05T18:13:20.709Z,6.4
2022-10-05T18:18:18.613Z,6.3
2022-10-05T18:23:16.769Z,6.2
2022-10-05T18:28:15.132Z,6.1
2022-10-05T18:33:13.194Z,6
2022-10-05T18:38:11.226Z,5.9
2022-10-05T18:43:09.422Z,5.9
2022-10-05T18:48:07.642Z,5.9
2022-10-05T18:53:05.901Z,5.8
2022-10-05T18:58:03.982Z,5.8
2022-10-05T19:03:02.296Z,5.7
2022-10-05T19:08:00.512Z,5.7
2022-10-05T19:12:58.668Z,5.6
2022-10-05T19:17:56.703Z,5.6
2022-10-05T19:22:54.874Z,5.6
2022-10-05T19:27:55.288Z,5.6
2022-10-05T19:32:51.046Z,5.6
2022-10-05T19:37:49.062Z,5.5
2022-10-05T19:42:47.360Z,5.5
2022-10-05T19:47:45.406Z,5.4
2022-10-05T19:52:47.619Z,5.4
2022-10-05T19:57:41.655Z,5.4
2022-10-05T20:02:42.001Z,5.4
2022-10-05T20:07:38.207Z,5.4
2022-10-05T20:12:36.319Z,5.3
2022-10-05T20:17:34.480Z,5.3
2022-10-05T20:22:32.652Z,5.3
2022-10-05T20:27:30.774Z,5.3
2022-10-05T20:32:30.773Z,5.3
2022-10-05T20:37:27.037Z,5.3
2022-10-05T20:42:25.283Z,5.3
2022-10-05T20:47:23.270Z,5.3
2022-10-05T20:52:21.558Z,5.3
2022-10-05T20:57:19.816Z,5.3
2022-10-05T21:02:17.851Z,5.3
2022-10-05T21:07:15.969Z,5.3
2022-10-05T21:12:13.978Z,5.3
2022-10-05T21:17:12.093Z,5.2
2022-10-05T21:22:10.532Z,5.2
2022-10-05T21:27:08.702Z,5.2
2022-10-05T21:32:07.020Z,5.2
2022-10-05T21:37:05.081Z,5.2
2022-10-05T21:42:03.387Z,5.1
2022-10-05T21:47:01.404Z,5
2022-10-05T21:51:59.681Z,4.9
2022-10-05T21:56:57.902Z,4.9
2022-10-05T22:01:55.928Z,4.9
2022-10-05T22:06:54.134Z,5
2022-10-05T22:11:52.158Z,4.8
2022-10-05T22:16:50.352Z,4.7
2022-10-05T22:21:48.249Z,4.7
2022-10-05T22:26:46.299Z,4.7
2022-10-05T22:31:44.606Z,4.6
2022-10-05T22:36:42.404Z,4.6
2022-10-05T22:41:40.576Z,4.5
2022-10-05T22:46:38.870Z,4.4
2022-10-05T22:51:37.058Z,4.4
2022-10-05T22:56:35.082Z,4.4
2022-10-05T23:01:33.129Z,4.4
2022-10-05T23:06:31.208Z,4.3
2022-10-05T23:11:29.291Z,4.1
2022-10-05T23:16:27.357Z,4.1
2022-10-05T23:21:25.406Z,4
2022-10-05T23:26:23.504Z,3.9
2022-10-05T23:31:21.677Z,3.8
2022-10-05T23:36:19.811Z,3.8
2022-10-05T23:41:18.070Z,3.7
2022-10-05T23:46:16.244Z,3.7
2022-10-05T23:51:14.333Z,3.6
2022-10-05T23:56:12.429Z,3.6
